Jefferson Manor, Virginia
Current Conditions -  °F | °C
As of 1:52 PM on Tuesday 21 Oct 2014 (Local Time) from KDCA Reporting Station
Scattered Clouds Scattered Clouds  
Wind Chill: 72°   Ceiling: Unl
Heat Index: 72°   Visibility: 10mi
Dew Point: 45°   Wind: 0mph
Humidity: 38%   Direction: NA
Pressure: 29.82"   Gusts: NA
Location:  38.7966°N, 77.0812°W
Report Text: KDCA 211752Z 00000KT 10SM SCT050 SCT120 22/07 A2982 RMK AO2 SLP099 T02220072 10228 20122 58019
Loading
Personal Weather Stations






























Interactive Weather Map
Tropical Storm Tracking
New forecast layout! Learn more

10-Day Weather Forecast

Advertisements
Track Severe Weather on mobile